2022年5月19日

时间 代码 天气 温度 能见度 乌云 METAR/SPECI
19:59
I
15 °C 10 km+ 700 ft 270°   270° 11 kt METAR EHLW 191759Z AUTO 27011KT 240V300 9999 OVC007 15/13 Q1018 GRN
19:55
I
15 °C 10 km+ 600 ft 270°   270° 12 kt METAR EHLW 191755Z AUTO 27012KT 240V300 9999 OVC006 15/13 Q1018 YLO
19:33
I
16 °C 10 km+ 900 ft 270°   270° 12 kt METAR EHLW 191733Z AUTO 27012KT 240V300 9999 SCT008 BKN009 OVC011 16/14 Q1018 GRN
19:26
M
17 °C 10 km+ 1.100 ft 270°   270° 11 kt METAR EHLW 191726Z AUTO 27011KT 240V300 9999 FEW008 SCT009 BKN011 17/14 Q1017 GRN
19:25
M
17 °C 10 km+ 1.600 ft 270°   270° 9 kt METAR EHLW 191725Z AUTO 27009KT 9999 FEW009 SCT010 OVC016 17/14 Q1017 GRN
19:00
M
16 °C 10 km+ 1.100 ft 270°   270° 13 kt METAR EHLW 191700Z AUTO 27013KT 240V310 9999 BKN011 BKN015 BKN019 16/14 Q1017 GRN
18:59
M
16 °C 10 km+ 1.500 ft 270°   270° 13 kt METAR EHLW 191659Z AUTO 27013KT 230V310 9999 SCT011 BKN015 BKN019 16/15 Q1017 GRN
18:55
M
16 °C 10 km+ 1.500 ft 270°   270° 13 kt METAR EHLW 191655Z AUTO 27013KT 230V310 9999 FEW012 BKN015 BKN019 16/15 Q1017 WHT
18:41
I
17 °C 10 km+ 700 ft 270°   270° 14 kt METAR EHLW 191641Z AUTO 27014KT 250V310 9999 BKN007 BKN008 BKN011 17/15 Q1017 GRN
18:36
M
17 °C 10 km+ 1.400 ft 270°   270° 13 kt METAR EHLW 191636Z AUTO 27013KT 220V310 9999 FEW007 SCT008 BKN014 17/15 Q1017 GRN
18:35
M
18 °C 10 km+ 1.900 ft 260°   260° 11 kt METAR EHLW 191635Z AUTO 26011KT 220V300 9999 FEW012 SCT014 BKN019 18/16 Q1017 GRN
18:21
V
20 °C 10 km+ 4.400 ft 250°   250° 9 kt METAR EHLW 191621Z AUTO 25009KT 210V270 9999 FEW018 SCT022 BKN044 20/16 Q1016 WHT
17:55
V
20 °C 10 km+ - 240°   240° 7 kt METAR EHLW 191555Z AUTO 24007KT 210V280 9999 SCT048 20/16 Q1016 BLU
17:25
V
20 °C 10 km+ 31.000 ft 220°   220° 5 kt METAR EHLW 191525Z AUTO 22005KT 180V250 9999 OVC310 20/16 Q1016 BLU
16:55
V
19 °C 10 km+ 23.000 ft 200°   200° 4 kt METAR EHLW 191455Z AUTO 20004KT 150V240 9999 OVC230 19/16 Q1016 BLU
16:25
V
18 °C 10 km+ 16.000 ft 110°   110° 6 kt METAR EHLW 191425Z AUTO 11006KT 030V190 9999 OVC160 18/16 Q1015 BLU
16:21
V
18 °C 10 km+ 15.000 ft 100°   100° 6 kt METAR EHLW 191421Z AUTO 10006KT 030V190 9999 FEW094 OVC150 18/16 Q1015 BLU NOSIG
16:12
V
17 °C 10 km+ 13.000 ft Var   Var 5 kt METAR EHLW 191412Z AUTO VRB05KT 9999 FEW015CB OVC130 17/16 Q1016 BLU NOSIG
15:56
V
17 °C 9 km 11.000 ft 100°   100° 5 kt METAR EHLW 191356Z AUTO 10005KT 040V160 9000 -DZ FEW015CB OVC110 17/16 Q1016 BLU NOSIG
15:55
M
17 °C 6 km 10.000 ft 130°   130° 4 kt METAR EHLW 191355Z AUTO 13004KT 040V200 6000 -DZ FEW015CB OVC100 17/16 Q1016 WHT NOSIG
15:39
M
18 °C 7 km 1.500 ft 160°   160° 4 kt METAR EHLW 191339Z AUTO 16004KT 110V200 7000 -RA BKN015CB OVC100 18/17 Q1017 WHT TEMPO 25010G25KT 3000 SHRA TSRA SCT025 SCT040CB
15:27
M
18 °C 7 km 1.500 ft 210°   210° 4 kt METAR EHLW 191327Z AUTO 21004KT 140V240 7000 -SHRA FEW005 BKN015CB BKN092 18/17 Q1018 WHT TEMPO 25010G25KT 3000 SHRA TSRA SCT025 SCT040CB
15:25
M
18 °C 9 km 1.500 ft 230°   230° 7 kt METAR EHLW 191325Z AUTO 23007KT 190V260 9000 SHRA FEW005 SCT008 BKN015CB 18/17 Q1018 GRN TEMPO 25010G25KT 3000 SHRA TSRA SCT025 SCT040CB
15:12
M
18 °C 7 km 9.300 ft 240°   240° 6 kt METAR EHLW 191312Z AUTO 24006KT 200V260 7000 -SHRA FEW004 SCT015CB OVC093 18/17 Q1018 WHT TEMPO 25010G25KT 3000 SHRA TSRA SCT025 SCT040CB
15:07
V
18 °C 8 km 9.300 ft 230°   230° 5 kt METAR EHLW 191307Z AUTO 23005KT 8000 -RA FEW004 SCT015CB BKN093 18/17 Q1018 WHT TEMPO 25010G25KT 3000 SHRA TSRA SCT025 SCT040CB
14:55
M
18 °C 9 km 1.500 ft 220°   220° 6 kt METAR EHLW 191255Z AUTO 22006KT 180V240 9000 -SHRA BKN015CB SCT084 BKN089 18/17 Q1018 RETSRA WHT TEMPO 25010G25KT 3000 SHRA TSRA SCT025 SCT040CB
14:25
M
19 °C 6 km 2.300 ft 220°   220° 12 kt METAR EHLW 191225Z AUTO 22012KT 180V240 6000 TSRA FEW015CB SCT020 BKN023 19/17 Q1018 WHT TEMPO 25010G25KT 3000 SHRA TSRA SCT025 SCT040CB
14:06
V
19 °C 9 km 7.100 ft 230°   230° 7 kt METAR EHLW 191206Z AUTO 23007KT 190V250 9000 TSRA FEW015CB SCT063 BKN071 19/17 Q1017 BLU TEMPO 25010G25KT 3000 SHRA TSRA SCT025 SCT040CB
13:55
I
21 °C 3 km 6.100 ft 220°   220° 10 kt METAR EHLW 191155Z AUTO 22010KT 180V250 3000 R05/P3000N +TSRA FEW015CB BKN061 BKN067 21/17 Q1017 YLO TEMPO 25010G25KT 3000 SHRA TSRA SCT025 SCT040CB
13:42
V
21 °C 10 km+ 7.700 ft 230°   230° 6 kt METAR EHLW 191142Z AUTO 23006KT 190V260 9999 TS SCT021 OVC077 21/17 Q1016 WHT TEMPO 25010G25KT 3000 SHRA TSRA SCT025 SCT040CB
13:25
V
22 °C 10 km+ 9.100 ft 160°   160° 6 kt METAR EHLW 191125Z AUTO 16006KT 100V210 9999 SCT081 BKN091 OVC100 22/15 Q1015 BLU BECMG 16010KT
12:55
V
21 °C 10 km+ 12.000 ft 130°   130° 9 kt METAR EHLW 191055Z AUTO 13009KT 080V180 9999 OVC120 21/17 Q1015 BLU BECMG 16010KT
12:25
V
20 °C 10 km+ 10.000 ft 110°   110° 11 kt METAR EHLW 191025Z AUTO 11011KT 050V180 9999 SCT099 BKN100 20/17 Q1015 BLU BECMG 16010KT
11:55
M
19 °C 7 km 11.000 ft Var   Var 10 kt METAR EHLW 190955Z AUTO VRB10KT 7000 BR OVC110 19/16 Q1016 WHT TEMPO VRB06KT 4000 SHRA TSRA SCT004 SCT045CB
11:25
I
18 °C 5 km 600 ft Var   Var 7 kt METAR EHLW 190925Z AUTO VRB07KT 5000 BR SCT004 BKN006 OVC007 18/16 Q1017 YLO TEMPO VRB06KT 4000 SHRA TSRA SCT004 SCT045CB
11:01
I
18 °C 6 km 500 ft Var   Var 4 kt METAR EHLW 190901Z AUTO VRB04KT 6000 BR SCT004 BKN005 BKN007 FEW015CB 18/16 Q1017 YLO TEMPO VRB06KT 4000 SHRA TSRA SCT004 SCT045CB
10:55
I
18 °C 6 km 500 ft 070°   070° 3 kt METAR EHLW 190855Z AUTO 07003KT 340V100 6000 -RADZ BKN005 BKN006 FEW015CB 18/16 Q1017 YLO TEMPO VRB06KT 4000 SHRA TSRA SCT004 SCT045CB
10:25
I
18 °C 6 km 500 ft 100°   100° 6 kt METAR EHLW 190825Z AUTO 10006KT 6000 BR BKN005 BKN006 BKN110 18/16 Q1017 YLO TEMPO VRB06KT 4000 SHRA TSRA SCT004 SCT045CB
10:19
I
17 °C 7 km 500 ft 090°   090° 6 kt METAR EHLW 190819Z AUTO 09006KT 7000 BR SCT004 BKN005 BKN110 17/16 Q1017 YLO TEMPO VRB06KT 4000 SHRA TSRA SCT004 SCT045CB
09:55
M
17 °C 6 km 11.000 ft Var   Var 8 kt METAR EHLW 190755Z AUTO VRB08KT 6000 BR SCT004 OVC110 17/16 Q1017 YLO TEMPO VRB06KT 2500 SHRA TSRA
09:25
V
17 °C 9 km 9.800 ft 050°   050° 4 kt METAR EHLW 190725Z AUTO 05004KT 360V130 9000 BR FEW066 SCT089 BKN098 17/16 Q1017 BLU TEMPO VRB06KT 2500 SHRA TSRA
08:55
M
16 °C 6 km 10.000 ft 360°   360° 5 kt METAR EHLW 190655Z AUTO 36005KT 330V030 6000 BR FEW015CB SCT096 OVC100 16/16 Q1016 WHT TEMPO VRB06KT 2500 SHRA TSRA
08:25
I
17 °C 3 km 1.500 ft 360°   360° 5 kt METAR EHLW 190625Z AUTO 36005KT 310V040 3000 R23/P3000D -SHRA BKN015CB SCT077 BKN089 17/16 Q1017 RERA YLO TEMPO VRB06KT 2500 SHRA TSRA
07:55
I
17 °C 4,5 km 9.000 ft 260°   260° 9 kt METAR EHLW 190555Z AUTO 26009KT 210V290 4500 RA SCT015CB BKN090 OVC096 17/16 Q1018 RERA REDZ GRN TEMPO 4500 SHRA
07:25
M
16 °C 6 km 2.800 ft 260°   260° 6 kt METAR EHLW 190525Z AUTO 26006KT 230V300 6000 -SHRA SCT015CB SCT025 BKN028 16/15 Q1018 REDZ WHT
07:15
M
16 °C 7 km 2.400 ft 240°   240° 9 kt METAR EHLW 190515Z AUTO 24009KT 210V270 7000 TSRA FEW015CB SCT021 BKN024 OVC028 16/14 Q1018 WHT
07:08
M
16 °C 7 km 2.800 ft 250°   250° 10 kt METAR EHLW 190508Z AUTO 25010KT 210V270 7000 -TSRA DZ FEW015CB SCT021 BKN028 16/14 Q1018 WHT
07:04
M
16 °C 7 km 2.500 ft 250°   250° 11 kt METAR EHLW 190504Z AUTO 25011KT 190V270 7000 DZ TS FEW015CB SCT022 BKN025 OVC067 16/14 Q1018 WHT
06:55
V
16 °C 9 km 7.400 ft 200°   200° 7 kt METAR EHLW 190455Z AUTO 20007KT 140V250 9000 TS BR FEW015CB SCT067 BKN074 16/14 Q1017 BLU
06:25
V
16 °C 10 km+ 12.000 ft 120°   120° 7 kt METAR EHLW 190425Z AUTO 12007KT 080V160 9999 FEW015CB OVC120 16/13 Q1015 RETS BLU
06:16
V
16 °C 10 km+ 13.000 ft 120°   120° 7 kt METAR EHLW 190416Z AUTO 12007KT 050V160 9999 FEW015CB OVC130 16/13 Q1016 BLU
05:59
V
16 °C 10 km+ 18.000 ft 110°   110° 8 kt METAR EHLW 190359Z AUTO 11008KT 050V180 9999 TS FEW015CB OVC180 16/13 Q1016 BLU
05:55
V
16 °C 10 km+ 18.000 ft 110°   110° 7 kt METAR EHLW 190355Z AUTO 11007KT 050V150 9999 OVC180 16/13 Q1016 BLU
05:25
V
15 °C 10 km+ 10.000 ft 110°   110° 5 kt METAR EHLW 190325Z AUTO 11005KT 050V160 9999 FEW023 OVC100 15/13 Q1016 BLU
04:55
V
14 °C 9 km 9.300 ft 040°   040° 4 kt METAR EHLW 190255Z AUTO 04004KT 350V120 9000 BR FEW074 SCT087 BKN093 14/13 Q1017 BLU
04:25
V
15 °C 9 km 21.000 ft 090°   090° 3 kt METAR EHLW 190225Z AUTO 09003KT 350V160 9000 BR FEW140 OVC210 15/13 Q1017 BLU
04:06
V
15 °C 10 km+ 22.000 ft Var   Var 4 kt METAR EHLW 190206Z AUTO VRB04KT 9999 OVC220 15/13 Q1017 BLU
03:55
V
14 °C 10 km+ 7.600 ft Var   Var 4 kt METAR EHLW 190155Z AUTO VRB04KT 9999 BKN076 OVC240 14/13 Q1017 BLU
03:39
M
14 °C 7 km 24.000 ft Var   Var 4 kt METAR EHLW 190139Z AUTO VRB04KT 7000 BR OVC240 14/13 Q1017 WHT
03:25
M
13 °C 5 km 8.000 ft Var   Var 4 kt METAR EHLW 190125Z AUTO VRB04KT 5000 BR BKN080 BKN097 OVC240 13/13 Q1017 WHT
03:09
I
13 °C 3,1 km 8.900 ft Var   Var 4 kt METAR EHLW 190109Z AUTO VRB04KT 3100 BR SCT081 BKN089 BKN096 13/13 Q1018 YLO
03:07
I
13 °C 4,2 km 9.700 ft Var   Var 5 kt METAR EHLW 190107Z AUTO VRB05KT 4200 BR SCT084 SCT091 BKN097 13/12 Q1018 GRN
02:55
I
13 °C 2,7 km 24.000 ft Var   Var 4 kt METAR EHLW 190055Z AUTO VRB04KT 2700 BR FEW086 SCT092 OVC240 13/13 Q1018 YLO
02:47
I
13 °C 4,8 km 24.000 ft 090°   090° 4 kt METAR EHLW 190047Z AUTO 09004KT 020V180 4800 BR FEW096 OVC240 13/13 Q1018 GRN
02:39
M
13 °C 5 km 24.000 ft 090°   090° 5 kt METAR EHLW 190039Z AUTO 09005KT 030V160 5000 BR FEW096 OVC240 13/12 Q1018 WHT
02:29
I
13 °C 3,1 km 24.000 ft 080°   080° 5 kt METAR EHLW 190029Z AUTO 08005KT 350V160 3100 BR OVC240/// 13/12 Q1018 YLO
02:25
I
12 °C 4 km 24.000 ft 090°   090° 5 kt METAR EHLW 190025Z AUTO 09005KT 350V160 4000 BR OVC240 12/12 Q1018 GRN
02:07
I
11 °C 2,2 km 23.000 ft 080°   080° 4 kt METAR EHLW 190007Z AUTO 08004KT 020V160 2200 BR OVC230 11/11 Q1018 YLO
02:00
L
11 °C 750 m 34.000 ft 060°   060° 4 kt METAR EHLW 190000Z AUTO 06004KT 360V130 0750 FG SCT230 OVC340 11/11 Q1018 RED
01:55
I
11 °C 2,5 km 31.000 ft 060°   060° 4 kt METAR EHLW 182355Z AUTO 06004KT 010V130 2500 BR FEW240 BKN310 OVC360 11/11 Q1018 YLO
01:39
I
11 °C 4,8 km 32.000 ft 050°   050° 4 kt METAR EHLW 182339Z AUTO 05004KT 360V090 4800 BR SCT240 OVC320 11/11 Q1018 GRN
01:33
I
11 °C 2 km 24.000 ft Var   Var 4 kt METAR EHLW 182333Z AUTO VRB04KT 2000 BR BKN240 OVC320 11/11 Q1018 YLO
01:26
L
12 °C 900 m 24.000 ft Var   Var 4 kt METAR EHLW 182326Z AUTO VRB04KT 0900 FG OVC240 12/12 Q1018 AMB
01:25
L
12 °C 700 m 24.000 ft 070°   070° 4 kt METAR EHLW 182325Z AUTO 07004KT 360V130 0700 FG BKN240 OVC330 12/12 Q1019 RED
01:16
L
11 °C 1 km 33.000 ft 080°   080° 4 kt METAR EHLW 182316Z AUTO 08004KT 340V140 1000 BR FEW260 OVC330 11/11 Q1019 AMB
01:11
I
12 °C 1,7 km 33.000 ft Var   Var 4 kt METAR EHLW 182311Z AUTO VRB04KT 1700 BR OVC330 12/11 Q1019 YLO
00:55
I
11 °C 2,7 km 25.000 ft 070°   070° 4 kt METAR EHLW 182255Z AUTO 07004KT 010V160 2700 BR OVC250 11/11 Q1019 YLO
00:25
I
11 °C 1,6 km 26.000 ft 070°   070° 3 kt METAR EHLW 182225Z AUTO 07003KT 360V120 1600 BR OVC260 11/11 Q1019 YLO

2022年5月18日

时间 代码 天气 温度 能见度 乌云 METAR/SPECI
23:55
I
12 °C 3,1 km 25.000 ft 050°   050° 3 kt METAR EHLW 182155Z AUTO 05003KT 020V090 3100 BR OVC250 12/11 Q1019 YLO
23:35
I
12 °C 2,8 km 36.000 ft 070°   070° 3 kt METAR EHLW 182135Z AUTO 07003KT 340V130 2800 BR FEW270 OVC360 12/11 Q1020 YLO
23:26
I
13 °C 4,3 km 36.000 ft Var   Var 3 kt METAR EHLW 182126Z AUTO VRB03KT 4300 BR SCT270 OVC360 13/12 Q1019 GRN
23:25
I
13 °C 3,2 km 36.000 ft Var   Var 4 kt METAR EHLW 182125Z AUTO VRB04KT 3200 BR SCT270 OVC360 13/12 Q1019 YLO
23:16
I
12 °C 3,5 km 36.000 ft 060°   060° 4 kt METAR EHLW 182116Z AUTO 06004KT 010V110 3500 BR OVC360 12/11 Q1019 YLO
23:00
M
13 °C 6 km 36.000 ft 070°   070° 5 kt METAR EHLW 182100Z AUTO 07005KT 360V160 6000 BR OVC360 13/12 Q1020 WHT
22:59
I
13 °C 3,3 km 36.000 ft 070°   070° 4 kt METAR EHLW 182059Z AUTO 07004KT 350V150 3300 BR BKN360 13/12 Q1020 YLO
22:55
M
13 °C 7 km 36.000 ft Var   Var 4 kt METAR EHLW 182055Z AUTO VRB04KT 7000 BR BKN360 13/12 Q1020 WHT
22:41
M
13 °C 7 km 26.000 ft Var   Var 5 kt METAR EHLW 182041Z AUTO VRB05KT 7000 BR BKN260 OVC390 13/12 Q1020 WHT
22:25
V
13 °C 10 km+ 26.000 ft 070°   070° 5 kt METAR EHLW 182025Z AUTO 07005KT 350V150 9999 OVC260 13/12 Q1020 BLU
21:55
V
13 °C 10 km+ 27.000 ft Var   Var 2 kt METAR EHLW 181955Z AUTO VRB02KT 9999 OVC270 13/12 Q1020 BLU
21:25
V
14 °C 10 km+ 27.000 ft 360°   360° 2 kt METAR EHLW 181925Z AUTO 36002KT 9999 OVC270 14/12 Q1020 BLU
20:55
V
15 °C 10 km+ 25.000 ft 010°   010° 3 kt METAR EHLW 181855Z AUTO 01003KT 360V060 9999 OVC250 15/13 Q1020 BLU
20:25
V
17 °C 10 km+ 25.000 ft 350°   350° 4 kt METAR EHLW 181825Z AUTO 35004KT 9999 OVC250 17/13 Q1020 BLU
19:55
V
18 °C 10 km+ 26.000 ft 350°   350° 5 kt METAR EHLW 181755Z AUTO 35005KT 310V010 9999 OVC260 18/12 Q1020 BLU
19:25
V
18 °C 10 km+ 28.000 ft 330°   330° 5 kt METAR EHLW 181725Z AUTO 33005KT 300V010 9999 BKN280 OVC330 18/12 Q1020 BLU
18:55
V
19 °C 10 km+ 29.000 ft 340°   340° 6 kt METAR EHLW 181655Z AUTO 34006KT 290V020 9999 BKN290 OVC350 19/11 Q1020 BLU
18:25
V
19 °C 10 km+ 27.000 ft 340°   340° 6 kt METAR EHLW 181625Z AUTO 34006KT 290V010 9999 OVC270 19/12 Q1020 BLU
17:55
V
19 °C 10 km+ 30.000 ft 340°   340° 7 kt METAR EHLW 181555Z AUTO 34007KT 290V020 9999 OVC300 19/12 Q1021 BLU
17:25
V
19 °C 10 km+ 25.000 ft 330°   330° 9 kt METAR EHLW 181525Z AUTO 33009KT 280V010 9999 OVC250 19/12 Q1021 BLU
16:55
V
19 °C 10 km+ 28.000 ft 330°   330° 9 kt METAR EHLW 181455Z AUTO 33009KT 280V030 9999 FEW088 OVC280 19/13 Q1021 BLU
16:25
V
19 °C 10 km+ 9.400 ft 330°   330° 8 kt METAR EHLW 181425Z AUTO 33008KT 270V030 9999 SCT086 BKN094 BKN270 19/12 Q1021 BLU
16:17
V
20 °C 10 km+ 8.800 ft 330°   330° 8 kt METAR EHLW 181417Z AUTO 33008KT 270V010 9999 BKN088 BKN100 20/13 Q1021 BLU
15:55
V
19 °C 10 km+ 5.200 ft 320°   320° 8 kt METAR EHLW 181355Z AUTO 32008KT 250V020 9999 BKN052 BKN063 BKN068 19/13 Q1021 BLU NOSIG
15:25
V
18 °C 10 km+ 6.600 ft 320°   320° 8 kt METAR EHLW 181325Z AUTO 32008KT 290V010 9999 OVC066 18/14 Q1021 BLU NOSIG
14:55
V
19 °C 10 km+ 6.600 ft 320°   320° 7 kt METAR EHLW 181255Z AUTO 32007KT 270V360 9999 OVC066 19/14 Q1021 BLU NOSIG
14:25
V
19 °C 10 km+ 6.800 ft 310°   310° 9 kt METAR EHLW 181225Z AUTO 31009KT 260V350 9999 BKN068 BKN074 OVC086 19/14 Q1021 BLU NOSIG
13:55
V
21 °C 10 km+ 6.600 ft 300°   300° 5 kt METAR EHLW 181155Z AUTO 30005KT 210V350 9999 FEW061 BKN066 BKN079 21/14 Q1020 BLU NOSIG
13:25
V
21 °C 10 km+ 6.700 ft 300°   300° 7 kt METAR EHLW 181125Z AUTO 30007KT 250V330 9999 SCT060 BKN067 BKN078 21/15 Q1020 BLU NOSIG
12:55
V
20 °C 10 km+ 6.500 ft 240°   240° 5 kt METAR EHLW 181055Z AUTO 24005KT 220V290 9999 OVC065 20/14 Q1020 BLU NOSIG
12:25
V
20 °C 10 km+ 6.500 ft 250°   250° 4 kt METAR EHLW 181025Z AUTO 25004KT 190V300 9999 BKN065 OVC087 20/14 Q1020 BLU NOSIG
11:55
V
20 °C 10 km+ 7.200 ft 280°   280° 7 kt METAR EHLW 180955Z AUTO 28007KT 240V340 9999 SCT065 BKN072 OVC093 20/14 Q1020 BLU NOSIG
11:25
V
21 °C 10 km+ 8.100 ft 270°   270° 10 kt METAR EHLW 180925Z AUTO 27010KT 240V310 9999 SCT070 SCT076 BKN081 21/15 Q1020 BLU NOSIG
10:55
V
22 °C 10 km+ - 250°   250° 8 kt METAR EHLW 180855Z AUTO 25008KT 210V280 9999 FEW400 22/14 Q1020 BLU NOSIG
10:25
V
22 °C 10 km+ 38.000 ft 240°   240° 8 kt METAR EHLW 180825Z AUTO 24008KT 190V270 9999 BKN380 22/14 Q1019 BLU NOSIG
09:55
V
21 °C 10 km+ 39.000 ft 220°   220° 8 kt METAR EHLW 180755Z AUTO 22008KT 190V250 9999 FEW071 SCT100 BKN390 21/14 Q1019 BLU NOSIG
09:30
V
21 °C 10 km+ 13.000 ft 220°   220° 7 kt METAR EHLW 180730Z AUTO 22007KT 170V240 9999 BKN130 OVC380 21/15 Q1019 BLU NOSIG
09:25
V
20 °C 10 km+ 11.000 ft 210°   210° 7 kt METAR EHLW 180725Z AUTO 21007KT 170V240 9999 OVC110 20/14 Q1019 BLU BECMG 22008KT
08:55
V
19 °C 10 km+ 37.000 ft 190°   190° 8 kt METAR EHLW 180655Z AUTO 19008KT 150V250 9999 SCT059 SCT065 OVC370 19/15 Q1019 BLU BECMG 22008KT
08:25
V
18 °C 10 km+ - 170°   170° 7 kt METAR EHLW 180625Z AUTO 17007KT 110V190 9999 NCD 18/14 Q1019 BLU BECMG 22005KT
08:00
V
17 °C 10 km+ - 170°   170° 6 kt METAR EHLW 180600Z AUTO 17006KT 130V190 9999 FEW069 17/14 Q1019 BLU BECMG 22005KT
07:55
V
17 °C 10 km+ - 170°   170° 7 kt METAR EHLW 180555Z AUTO 17007KT 130V190 9999 FEW071 17/14 Q1019 BLU
07:25
V
17 °C 10 km+ 12.000 ft 160°   160° 6 kt METAR EHLW 180525Z AUTO 16006KT 120V180 9999 BKN120 17/13 Q1018 BLU
06:55
V
16 °C 10 km+ - 150°   150° 7 kt METAR EHLW 180455Z AUTO 15007KT 120V180 9999 SCT130 16/13 Q1018 BLU
06:25
V
16 °C 10 km+ 15.000 ft 140°   140° 8 kt METAR EHLW 180425Z AUTO 14008KT 100V160 9999 OVC150 16/13 Q1018 BLU
05:55
V
16 °C 10 km+ - 150°   150° 7 kt METAR EHLW 180355Z AUTO 15007KT 110V170 9999 FEW170 16/13 Q1018 BLU
05:25
V
16 °C 10 km+ 38.000 ft 140°   140° 7 kt METAR EHLW 180325Z AUTO 14007KT 110V170 9999 OVC380/// 16/13 Q1018 BLU
04:55
V
16 °C 10 km+ 38.000 ft 140°   140° 7 kt METAR EHLW 180255Z AUTO 14007KT 110V170 9999 SCT190 OVC380 16/13 Q1018 BLU
04:25
V
16 °C 10 km+ 38.000 ft 150°   150° 7 kt METAR EHLW 180225Z AUTO 15007KT 120V180 9999 SCT190 OVC380 16/13 Q1018 BLU
03:55
V
17 °C 10 km+ 15.000 ft 150°   150° 7 kt METAR EHLW 180155Z AUTO 15007KT 100V170 9999 OVC150 17/13 Q1018 BLU
03:25
V
17 °C 10 km+ - 150°   150° 5 kt METAR EHLW 180125Z AUTO 15005KT 9999 NCD 17/13 Q1018 BLU
02:55
V
17 °C 10 km+ - 140°   140° 6 kt METAR EHLW 180055Z AUTO 14006KT 110V180 9999 NCD 17/13 Q1018 BLU
02:25
V
18 °C 10 km+ - 130°   130° 8 kt METAR EHLW 180025Z AUTO 13008KT 080V150 9999 NCD 18/13 Q1018 BLU RMK CB INFO NOT AVBL
01:55
V
18 °C 10 km+ 37.000 ft 130°   130° 8 kt METAR EHLW 172355Z AUTO 13008KT 070V160 9999 BKN370 18/13 Q1018 BLU
01:25
V
18 °C 10 km+ 14.000 ft 130°   130° 8 kt METAR EHLW 172325Z AUTO 13008KT 090V160 9999 BKN140 18/14 Q1018 BLU
00:55
V
18 °C 10 km+ 16.000 ft 130°   130° 8 kt METAR EHLW 172255Z AUTO 13008KT 090V170 9999 BKN160 18/13 Q1018 BLU
00:25
V
18 °C 10 km+ 15.000 ft 120°   120° 6 kt METAR EHLW 172225Z AUTO 12006KT 060V170 9999 OVC150 18/13 Q1018 BLU

2022年5月17日

时间 代码 天气 温度 能见度 乌云 METAR/SPECI
23:55
V
17 °C 10 km+ 16.000 ft 100°   100° 4 kt METAR EHLW 172155Z AUTO 10004KT 020V150 9999 OVC160 17/13 Q1018 BLU
23:25
V
17 °C 10 km+ 15.000 ft Var   Var 5 kt METAR EHLW 172125Z AUTO VRB05KT 9999 OVC150 17/13 Q1019 BLU
22:55
V
17 °C 10 km+ 16.000 ft Var   Var 7 kt METAR EHLW 172055Z AUTO VRB07KT 9999 OVC160 17/12 Q1019 BLU
22:25
V
17 °C 10 km+ 14.000 ft 080°   080° 8 kt METAR EHLW 172025Z AUTO 08008KT 360V170 9999 OVC140 17/12 Q1019 BLU
21:55
V
17 °C 10 km+ 14.000 ft Var   Var 7 kt METAR EHLW 171955Z AUTO VRB07KT 9999 OVC140 17/13 Q1019 BLU
21:25
V
17 °C 10 km+ 14.000 ft 060°   060° 6 kt METAR EHLW 171925Z AUTO 06006KT 360V120 9999 OVC140 17/13 Q1019 BLU
20:55
V
18 °C 10 km+ 15.000 ft 060°   060° 9 kt METAR EHLW 171855Z AUTO 06009KT 360V110 9999 OVC150 18/11 Q1019 BLU
20:25
V
18 °C 10 km+ 16.000 ft 040°   040° 7 kt METAR EHLW 171825Z AUTO 04007KT 360V060 9999 OVC160 18/13 Q1019 BLU
19:55
V
19 °C 10 km+ 17.000 ft 050°   050° 9 kt METAR EHLW 171755Z AUTO 05009KT 360V070 9999 OVC170 19/12 Q1019 BLU
19:25
V
20 °C 10 km+ 18.000 ft 050°   050° 8 kt METAR EHLW 171725Z AUTO 05008KT 360V090 9999 OVC180 20/12 Q1019 BLU
18:55
V
21 °C 10 km+ 18.000 ft 040°   040° 6 kt METAR EHLW 171655Z AUTO 04006KT 360V090 9999 FEW060 BKN180 21/13 Q1019 BLU
18:25
V
22 °C 10 km+ 24.000 ft 050°   050° 4 kt METAR EHLW 171625Z AUTO 05004KT 350V130 9999 SCT045 OVC240 22/12 Q1019 BLU
17:55
V
21 °C 10 km+ 4.300 ft 020°   020° 5 kt METAR EHLW 171555Z AUTO 02005KT 340V100 9999 OVC043 21/12 Q1019 BLU
17:25
V
21 °C 10 km+ 5.900 ft 350°   350° 6 kt METAR EHLW 171525Z AUTO 35006KT 290V040 9999 FEW048 BKN059 BKN064 21/12 Q1019 BLU
16:55
V
22 °C 10 km+ 6.000 ft 020°   020° 7 kt METAR EHLW 171455Z AUTO 02007KT 360V070 9999 OVC060 22/11 Q1019 BLU
较旧的数据

下载我们的应用程序

在您的手机和平板电脑上轻松访问所有航空天气。
有许多网站上没有的功能,如离线支持和个人机场列表。

Studio Eveline

Benalmádena
España

我们和第三方通过cookies跟踪您在我们网站上的上网行为。如果您继续,我们认为您同意我们的cookie政策。 了解更多